createdAt,value
2023-03-26T00:00:43.860Z,87.37
2023-03-26T00:05:48.325Z,88.09
2023-03-26T00:10:53.034Z,87.67
2023-03-26T00:15:56.768Z,87.62
2023-03-26T00:21:01.045Z,87.80
2023-03-26T00:26:10.933Z,88.87
2023-03-26T00:31:16.431Z,89.87
2023-03-26T00:36:20.861Z,90.04
2023-03-26T00:41:32.370Z,90.26
2023-03-26T00:46:36.613Z,91.39
2023-03-26T00:51:39.976Z,90.94
2023-03-26T00:56:44.565Z,91.88
2023-03-26T01:01:47.904Z,92.39
2023-03-26T01:06:51.695Z,92.80
2023-03-26T01:11:56.725Z,93.26
2023-03-26T01:17:02.416Z,93.74
2023-03-26T01:22:07.464Z,93.61
2023-03-26T01:27:26.024Z,93.11
2023-03-26T01:32:45.039Z,93.99
2023-03-26T01:38:02.427Z,93.53
2023-03-26T01:43:13.331Z,93.66
2023-03-26T01:48:16.959Z,93.63
2023-03-26T01:53:20.455Z,93.84
2023-03-26T01:58:32.472Z,93.23
2023-03-26T02:03:43.391Z,93.34
2023-03-26T02:08:50.900Z,93.94
2023-03-26T02:13:56.074Z,94.68
2023-03-26T02:19:00.386Z,94.86
2023-03-26T02:24:04.354Z,95.71
2023-03-26T02:29:09.910Z,95.79
2023-03-26T02:34:13.201Z,96.54
2023-03-26T02:39:17.015Z,97.14
2023-03-26T02:44:21.686Z,97.50
2023-03-26T02:49:24.805Z,97.94
2023-03-26T02:54:28.354Z,98.58
2023-03-26T02:59:33.066Z,98.89
2023-03-26T03:04:36.304Z,98.66
2023-03-26T03:09:39.585Z,99.35
2023-03-26T03:14:44.291Z,99.90
2023-03-26T03:19:48.188Z,99.70
2023-03-26T03:24:52.339Z,100.00
2023-03-26T03:29:59.043Z,100.00
2023-03-26T03:35:02.428Z,100.00
2023-03-26T03:40:14.644Z,100.00
2023-03-26T03:45:20.243Z,100.00
2023-03-26T03:50:23.593Z,100.00
2023-03-26T03:55:27.737Z,100.00
2023-03-26T04:00:32.725Z,100.00
2023-03-26T04:05:36.531Z,100.00
2023-03-26T04:10:39.820Z,100.00
2023-03-26T04:15:45.717Z,100.00
2023-03-26T04:20:49.473Z,100.00
2023-03-26T04:25:55.810Z,100.00
2023-03-26T04:31:04.975Z,100.00
2023-03-26T04:36:08.869Z,100.00
2023-03-26T04:41:13.648Z,100.00
2023-03-26T04:46:21.898Z,100.00
2023-03-26T04:51:28.206Z,100.00
2023-03-26T04:56:41.134Z,100.00
2023-03-26T05:01:46.871Z,100.00
2023-03-26T05:06:50.073Z,100.00
2023-03-26T05:11:53.430Z,100.00
2023-03-26T05:16:58.274Z,99.76
2023-03-26T05:22:01.735Z,99.53
2023-03-26T05:27:05.041Z,98.94
2023-03-26T05:32:11.062Z,99.04
2023-03-26T05:37:14.249Z,97.90
2023-03-26T05:42:17.412Z,97.64
2023-03-26T05:47:22.255Z,97.38
2023-03-26T05:52:25.678Z,97.16
2023-03-26T05:57:31.032Z,96.41
2023-03-26T06:02:36.273Z,96.52
2023-03-26T06:07:39.870Z,96.38
2023-03-26T06:12:43.193Z,95.47
2023-03-26T06:17:48.449Z,95.60
2023-03-26T06:22:51.892Z,94.84
2023-03-26T06:27:55.082Z,95.13
2023-03-26T06:33:00.463Z,94.16
2023-03-26T06:38:04.452Z,93.24
2023-03-26T06:43:10.869Z,93.48
2023-03-26T06:48:16.084Z,92.59
2023-03-26T06:53:19.387Z,92.60
2023-03-26T06:58:23.028Z,91.83
2023-03-26T07:03:27.930Z,90.47
2023-03-26T07:08:32.592Z,91.38
2023-03-26T07:13:40.783Z,89.53
2023-03-26T07:18:49.625Z,88.90
2023-03-26T07:23:54.842Z,88.71
2023-03-26T07:29:16.389Z,88.06
2023-03-26T07:34:36.091Z,87.39
2023-03-26T07:39:47.974Z,85.24
2023-03-26T07:45:01.019Z,85.66
2023-03-26T07:50:07.735Z,80.14
2023-03-26T07:55:14.814Z,80.43
2023-03-26T08:00:22.284Z,78.69
2023-03-26T08:05:30.039Z,77.47
2023-03-26T08:10:42.376Z,77.30
2023-03-26T08:15:53.778Z,76.79
2023-03-26T08:21:06.344Z,76.96
2023-03-26T08:26:18.200Z,76.66
2023-03-26T08:31:33.077Z,75.54
2023-03-26T08:36:38.039Z,75.34
2023-03-26T08:42:34.974Z,74.39
2023-03-26T08:48:17.572Z,73.60
2023-03-26T08:53:38.906Z,73.56
2023-03-26T08:59:15.321Z,73.04
2023-03-26T09:04:50.004Z,71.94
2023-03-26T09:10:17.220Z,70.67
2023-03-26T09:15:50.445Z,68.96
2023-03-26T09:21:18.684Z,68.22
2023-03-26T09:26:47.594Z,66.77
2023-03-26T09:32:24.897Z,66.47
2023-03-26T09:37:56.813Z,65.57
2023-03-26T09:43:27.160Z,64.05
2023-03-26T09:49:05.706Z,64.06
2023-03-26T09:54:39.681Z,63.84
2023-03-26T10:00:06.629Z,64.28
2023-03-26T10:05:24.542Z,62.66
2023-03-26T10:10:37.197Z,61.65
2023-03-26T10:15:58.962Z,61.46
2023-03-26T10:21:07.218Z,61.43
2023-03-26T10:26:22.978Z,58.82
2023-03-26T10:31:42.168Z,59.19
2023-03-26T10:36:54.678Z,58.45
2023-03-26T10:42:07.800Z,58.00
2023-03-26T10:47:41.668Z,58.05
2023-03-26T10:53:10.492Z,57.56
2023-03-26T10:58:23.018Z,56.92
2023-03-26T11:03:51.964Z,56.38
2023-03-26T11:09:09.198Z,56.77
2023-03-26T11:14:34.994Z,55.29
2023-03-26T11:19:53.018Z,56.23
2023-03-26T11:25:22.820Z,56.05
2023-03-26T11:30:48.926Z,55.40
2023-03-26T11:36:00.835Z,55.15
2023-03-26T11:41:13.781Z,55.51
2023-03-26T11:46:20.522Z,55.36
2023-03-26T11:51:39.668Z,55.15
2023-03-26T11:57:05.498Z,56.18
2023-03-26T12:02:26.330Z,58.90
2023-03-26T12:07:35.174Z,62.95
2023-03-26T12:12:42.015Z,66.29
2023-03-26T12:17:45.433Z,66.70
2023-03-26T12:23:00.304Z,67.39
2023-03-26T12:28:06.235Z,66.23
2023-03-26T12:33:19.413Z,63.71
2023-03-26T12:38:33.461Z,64.66
2023-03-26T12:44:46.165Z,63.44
2023-03-26T12:49:08.914Z,64.36
2023-03-26T12:54:33.316Z,67.51
2023-03-26T12:59:48.853Z,67.34
2023-03-26T13:05:07.135Z,68.03
2023-03-26T13:10:51.520Z,67.31
2023-03-26T13:16:00.604Z,66.89
2023-03-26T13:21:12.097Z,67.75
2023-03-26T13:26:36.193Z,67.42
2023-03-26T13:31:46.510Z,67.25
2023-03-26T13:37:04.167Z,67.56
2023-03-26T13:42:24.262Z,68.19
2023-03-26T13:47:30.729Z,68.80
2023-03-26T13:52:40.714Z,69.54
2023-03-26T13:57:50.757Z,69.73
2023-03-26T14:02:59.321Z,70.18
2023-03-26T14:08:05.789Z,69.70
2023-03-26T14:13:17.691Z,70.23
2023-03-26T14:18:33.438Z,70.36
2023-03-26T14:24:17.155Z,70.43
2023-03-26T14:29:56.300Z,71.61
2023-03-26T14:35:11.811Z,72.87
2023-03-26T14:40:30.790Z,75.28
2023-03-26T14:46:05.340Z,77.34
2023-03-26T14:51:28.407Z,78.99
2023-03-26T14:56:53.613Z,81.53
2023-03-26T15:02:45.135Z,83.86
2023-03-26T15:08:33.536Z,85.16
2023-03-26T15:13:59.665Z,87.27
2023-03-26T15:19:38.116Z,89.24
2023-03-26T15:25:23.532Z,90.13
2023-03-26T15:31:07.184Z,93.04
2023-03-26T15:36:44.741Z,92.86
2023-03-26T15:41:56.840Z,93.39
2023-03-26T15:47:18.689Z,93.83
2023-03-26T15:52:31.447Z,94.42
2023-03-26T15:57:41.412Z,94.63
2023-03-26T16:02:54.736Z,95.15
2023-03-26T16:08:08.247Z,95.72
2023-03-26T16:13:37.817Z,99.00
2023-03-26T16:18:43.740Z,95.92
2023-03-26T16:23:58.201Z,98.73
2023-03-26T16:29:19.852Z,98.82
2023-03-26T16:34:29.755Z,100.00
2023-03-26T16:39:44.240Z,100.00
2023-03-26T16:44:58.583Z,100.00
2023-03-26T16:50:15.420Z,100.00
2023-03-26T16:55:34.541Z,100.00
2023-03-26T17:00:52.493Z,100.00
2023-03-26T17:06:06.525Z,100.00
2023-03-26T17:11:23.133Z,100.00
2023-03-26T17:16:43.984Z,100.00
2023-03-26T17:22:18.848Z,100.00
2023-03-26T17:27:34.328Z,100.00
2023-03-26T17:32:58.924Z,100.00
2023-03-26T17:38:02.772Z,100.00
2023-03-26T17:43:11.285Z,100.00
2023-03-26T17:48:20.083Z,100.00
2023-03-26T17:53:28.750Z,100.00
2023-03-26T17:58:38.437Z,100.00
2023-03-26T18:03:50.657Z,100.00
2023-03-26T18:09:10.941Z,100.00
2023-03-26T18:14:44.686Z,100.00
2023-03-26T18:19:51.387Z,100.00
2023-03-26T18:25:00.014Z,100.00
2023-03-26T18:30:16.778Z,100.00
2023-03-26T18:35:24.325Z,100.00
2023-03-26T18:40:31.985Z,100.00
2023-03-26T18:45:40.578Z,100.00
2023-03-26T18:50:44.163Z,100.00
2023-03-26T18:55:50.539Z,100.00
2023-03-26T19:00:59.910Z,100.00
2023-03-26T19:06:08.358Z,100.00
2023-03-26T19:11:13.513Z,100.00
2023-03-26T19:16:24.401Z,100.00
2023-03-26T19:21:28.494Z,100.00
2023-03-26T19:26:32.923Z,100.00
2023-03-26T19:31:40.353Z,100.00
2023-03-26T19:36:58.303Z,100.00
2023-03-26T19:42:09.059Z,100.00
2023-03-26T19:47:19.916Z,100.00
2023-03-26T19:52:26.217Z,100.00
2023-03-26T19:57:32.116Z,100.00
2023-03-26T20:02:42.053Z,100.00
2023-03-26T20:07:45.342Z,100.00
2023-03-26T20:12:48.975Z,100.00
2023-03-26T20:17:54.660Z,100.00
2023-03-26T20:22:58.538Z,100.00
2023-03-26T20:28:01.789Z,100.00
2023-03-26T20:33:12.380Z,100.00
2023-03-26T20:38:17.096Z,100.00
2023-03-26T20:43:24.156Z,100.00
2023-03-26T20:48:28.735Z,100.00
2023-03-26T20:53:31.934Z,100.00
2023-03-26T20:58:35.410Z,100.00
2023-03-26T21:03:40.856Z,100.00
2023-03-26T21:08:46.606Z,100.00
2023-03-26T21:13:57.007Z,100.00
2023-03-26T21:19:03.096Z,100.00
2023-03-26T21:24:13.390Z,100.00
2023-03-26T21:29:17.296Z,100.00
2023-03-26T21:34:22.524Z,100.00
2023-03-26T21:39:26.366Z,100.00
2023-03-26T21:44:30.373Z,100.00
2023-03-26T21:49:37.333Z,100.00
2023-03-26T21:54:43.338Z,100.00
2023-03-26T21:59:52.991Z,100.00
2023-03-26T22:05:02.204Z,100.00
2023-03-26T22:10:06.620Z,100.00
2023-03-26T22:15:13.756Z,100.00
2023-03-26T22:20:19.801Z,100.00
2023-03-26T22:25:24.781Z,100.00
2023-03-26T22:30:28.496Z,100.00
2023-03-26T22:35:33.046Z,100.00
2023-03-26T22:40:36.426Z,100.00
2023-03-26T22:45:39.629Z,100.00
2023-03-26T22:50:44.948Z,100.00
2023-03-26T22:55:48.223Z,100.00
2023-03-26T23:00:53.094Z,100.00
2023-03-26T23:05:59.136Z,100.00
2023-03-26T23:11:02.343Z,100.00
2023-03-26T23:16:06.853Z,100.00
2023-03-26T23:21:16.872Z,100.00
2023-03-26T23:26:20.219Z,100.00
2023-03-26T23:31:25.450Z,100.00
2023-03-26T23:36:30.115Z,100.00
2023-03-26T23:41:33.810Z,100.00
2023-03-26T23:46:37.363Z,100.00
2023-03-26T23:51:42.219Z,100.00
2023-03-26T23:56:45.455Z,100.00
